sensor_id;sensor_type;location;lat;lon;timestamp;P1;durP1;ratioP1;P2;durP2;ratioP2
11439;SDS011;5776;51.814;4.510;2022-12-18T00:01:31;50.03;;;22.97;;
11439;SDS011;5776;51.814;4.510;2022-12-18T00:03:59;37.27;;;16.77;;
11439;SDS011;5776;51.814;4.510;2022-12-18T00:06:27;33.57;;;17.30;;
11439;SDS011;5776;51.814;4.510;2022-12-18T00:08:54;49.53;;;21.67;;
11439;SDS011;5776;51.814;4.510;2022-12-18T00:11:22;36.73;;;16.53;;
11439;SDS011;5776;51.814;4.510;2022-12-18T00:13:50;41.27;;;19.43;;
11439;SDS011;5776;51.814;4.510;2022-12-18T00:16:18;54.13;;;22.77;;
11439;SDS011;5776;51.814;4.510;2022-12-18T00:18:46;47.37;;;20.57;;
11439;SDS011;5776;51.814;4.510;2022-12-18T00:21:17;46.00;;;20.27;;
11439;SDS011;5776;51.814;4.510;2022-12-18T00:23:44;48.83;;;21.93;;
11439;SDS011;5776;51.814;4.510;2022-12-18T00:26:15;54.27;;;23.90;;
11439;SDS011;5776;51.814;4.510;2022-12-18T00:28:44;55.83;;;23.57;;
11439;SDS011;5776;51.814;4.510;2022-12-18T00:31:11;54.07;;;23.07;;
11439;SDS011;5776;51.814;4.510;2022-12-18T00:33:40;44.43;;;19.60;;
11439;SDS011;5776;51.814;4.510;2022-12-18T00:36:06;29.23;;;13.33;;
11439;SDS011;5776;51.814;4.510;2022-12-18T00:38:37;46.30;;;19.60;;
11439;SDS011;5776;51.814;4.510;2022-12-18T00:41:03;44.80;;;20.97;;
11439;SDS011;5776;51.814;4.510;2022-12-18T00:43:30;39.90;;;18.97;;
11439;SDS011;5776;51.814;4.510;2022-12-18T00:45:59;41.70;;;18.53;;
11439;SDS011;5776;51.814;4.510;2022-12-18T00:48:25;36.23;;;17.37;;
11439;SDS011;5776;51.814;4.510;2022-12-18T00:50:51;44.53;;;20.13;;
11439;SDS011;5776;51.814;4.510;2022-12-18T00:53:16;44.63;;;20.67;;
11439;SDS011;5776;51.814;4.510;2022-12-18T00:55:44;49.63;;;21.00;;
11439;SDS011;5776;51.814;4.510;2022-12-18T00:58:12;46.17;;;21.30;;
11439;SDS011;5776;51.814;4.510;2022-12-18T01:00:39;45.53;;;21.27;;
11439;SDS011;5776;51.814;4.510;2022-12-18T01:03:05;49.60;;;22.20;;
11439;SDS011;5776;51.814;4.510;2022-12-18T01:05:31;47.60;;;20.87;;
11439;SDS011;5776;51.814;4.510;2022-12-18T01:07:57;43.77;;;21.27;;
11439;SDS011;5776;51.814;4.510;2022-12-18T01:10:24;44.00;;;20.83;;
11439;SDS011;5776;51.814;4.510;2022-12-18T01:12:51;44.73;;;20.87;;
11439;SDS011;5776;51.814;4.510;2022-12-18T01:15:17;45.90;;;19.90;;
11439;SDS011;5776;51.814;4.510;2022-12-18T01:17:43;45.07;;;21.60;;
11439;SDS011;5776;51.814;4.510;2022-12-18T01:20:10;47.17;;;22.73;;
11439;SDS011;5776;51.814;4.510;2022-12-18T01:22:37;47.13;;;21.47;;
11439;SDS011;5776;51.814;4.510;2022-12-18T01:25:03;51.97;;;23.10;;
11439;SDS011;5776;51.814;4.510;2022-12-18T01:27:30;46.33;;;21.47;;
11439;SDS011;5776;51.814;4.510;2022-12-18T01:29:56;51.90;;;22.57;;
11439;SDS011;5776;51.814;4.510;2022-12-18T01:32:21;45.47;;;20.20;;
11439;SDS011;5776;51.814;4.510;2022-12-18T01:34:47;46.70;;;21.63;;
11439;SDS011;5776;51.814;4.510;2022-12-18T01:37:13;56.67;;;24.13;;
11439;SDS011;5776;51.814;4.510;2022-12-18T01:39:39;52.40;;;22.73;;
11439;SDS011;5776;51.814;4.510;2022-12-18T01:42:12;48.60;;;21.97;;
11439;SDS011;5776;51.814;4.510;2022-12-18T01:47:20;45.33;;;20.50;;
11439;SDS011;5776;51.814;4.510;2022-12-18T01:49:50;44.97;;;21.37;;
11439;SDS011;5776;51.814;4.510;2022-12-18T01:52:17;45.87;;;22.23;;
11439;SDS011;5776;51.814;4.510;2022-12-18T01:54:44;44.57;;;20.47;;
11439;SDS011;5776;51.814;4.510;2022-12-18T01:57:11;46.63;;;21.67;;
11439;SDS011;5776;51.814;4.510;2022-12-18T01:59:37;50.50;;;23.20;;
11439;SDS011;5776;51.814;4.510;2022-12-18T02:02:07;50.00;;;21.63;;
11439;SDS011;5776;51.814;4.510;2022-12-18T02:04:33;47.13;;;21.63;;
11439;SDS011;5776;51.814;4.510;2022-12-18T02:07:07;46.77;;;21.43;;
11439;SDS011;5776;51.814;4.510;2022-12-18T02:10:02;45.53;;;21.47;;
11439;SDS011;5776;51.814;4.510;2022-12-18T02:12:42;40.60;;;18.20;;
11439;SDS011;5776;51.814;4.510;2022-12-18T02:18:11;36.77;;;17.93;;
11439;SDS011;5776;51.814;4.510;2022-12-18T02:23:29;40.33;;;19.80;;
11439;SDS011;5776;51.814;4.510;2022-12-18T02:26:29;42.23;;;19.93;;
11439;SDS011;5776;51.814;4.510;2022-12-18T02:29:05;38.83;;;19.40;;
11439;SDS011;5776;51.814;4.510;2022-12-18T02:31:49;35.93;;;18.93;;
11439;SDS011;5776;51.814;4.510;2022-12-18T02:34:21;37.87;;;18.77;;
11439;SDS011;5776;51.814;4.510;2022-12-18T02:36:52;38.67;;;18.73;;
11439;SDS011;5776;51.814;4.510;2022-12-18T02:39:21;41.10;;;19.30;;
11439;SDS011;5776;51.814;4.510;2022-12-18T02:41:48;42.37;;;20.07;;
11439;SDS011;5776;51.814;4.510;2022-12-18T02:44:16;42.67;;;20.13;;
11439;SDS011;5776;51.814;4.510;2022-12-18T02:46:45;43.30;;;19.87;;
11439;SDS011;5776;51.814;4.510;2022-12-18T02:51:44;37.47;;;19.30;;
11439;SDS011;5776;51.814;4.510;2022-12-18T02:56:50;41.23;;;20.60;;
11439;SDS011;5776;51.814;4.510;2022-12-18T02:59:21;40.03;;;19.40;;
11439;SDS011;5776;51.814;4.510;2022-12-18T03:02:04;43.03;;;20.40;;
11439;SDS011;5776;51.814;4.510;2022-12-18T03:04:48;43.17;;;20.57;;
11439;SDS011;5776;51.814;4.510;2022-12-18T03:07:22;40.40;;;21.53;;
11439;SDS011;5776;51.814;4.510;2022-12-18T03:09:53;41.17;;;20.90;;
11439;SDS011;5776;51.814;4.510;2022-12-18T03:12:26;43.23;;;20.60;;
11439;SDS011;5776;51.814;4.510;2022-12-18T03:17:41;43.00;;;20.13;;
11439;SDS011;5776;51.814;4.510;2022-12-18T03:20:12;42.23;;;19.83;;
11439;SDS011;5776;51.814;4.510;2022-12-18T03:22:43;41.23;;;20.60;;
11439;SDS011;5776;51.814;4.510;2022-12-18T03:25:13;42.20;;;20.57;;
11439;SDS011;5776;51.814;4.510;2022-12-18T03:27:43;41.80;;;19.27;;
11439;SDS011;5776;51.814;4.510;2022-12-18T03:30:15;42.00;;;19.13;;
11439;SDS011;5776;51.814;4.510;2022-12-18T03:32:47;41.93;;;20.03;;
11439;SDS011;5776;51.814;4.510;2022-12-18T03:35:19;39.67;;;18.83;;
11439;SDS011;5776;51.814;4.510;2022-12-18T03:37:51;37.50;;;19.63;;
11439;SDS011;5776;51.814;4.510;2022-12-18T03:40:17;38.83;;;19.40;;
11439;SDS011;5776;51.814;4.510;2022-12-18T03:42:51;41.50;;;20.40;;
11439;SDS011;5776;51.814;4.510;2022-12-18T03:48:52;39.73;;;19.20;;
11439;SDS011;5776;51.814;4.510;2022-12-18T03:50:49;43.30;;;20.97;;
11439;SDS011;5776;51.814;4.510;2022-12-18T03:56:21;39.03;;;20.40;;
11439;SDS011;5776;51.814;4.510;2022-12-18T03:58:50;44.03;;;19.40;;
11439;SDS011;5776;51.814;4.510;2022-12-18T04:01:19;38.23;;;19.20;;
11439;SDS011;5776;51.814;4.510;2022-12-18T04:03:51;42.73;;;20.07;;
11439;SDS011;5776;51.814;4.510;2022-12-18T04:06:18;40.43;;;20.20;;
11439;SDS011;5776;51.814;4.510;2022-12-18T04:08:45;44.43;;;20.53;;
11439;SDS011;5776;51.814;4.510;2022-12-18T04:11:12;44.57;;;20.30;;
11439;SDS011;5776;51.814;4.510;2022-12-18T04:13:38;38.87;;;19.50;;
11439;SDS011;5776;51.814;4.510;2022-12-18T04:16:04;43.33;;;20.70;;
11439;SDS011;5776;51.814;4.510;2022-12-18T04:18:31;35.73;;;18.83;;
11439;SDS011;5776;51.814;4.510;2022-12-18T04:20:57;39.93;;;19.27;;
11439;SDS011;5776;51.814;4.510;2022-12-18T04:23:23;40.53;;;18.93;;
11439;SDS011;5776;51.814;4.510;2022-12-18T04:25:48;41.70;;;19.87;;
11439;SDS011;5776;51.814;4.510;2022-12-18T04:28:14;39.27;;;19.93;;
11439;SDS011;5776;51.814;4.510;2022-12-18T04:30:40;40.87;;;20.07;;
11439;SDS011;5776;51.814;4.510;2022-12-18T04:33:10;37.13;;;18.70;;
11439;SDS011;5776;51.814;4.510;2022-12-18T04:35:36;41.80;;;19.23;;
11439;SDS011;5776;51.814;4.510;2022-12-18T04:38:02;38.57;;;18.73;;
11439;SDS011;5776;51.814;4.510;2022-12-18T04:40:28;39.33;;;18.63;;
11439;SDS011;5776;51.814;4.510;2022-12-18T04:42:54;34.00;;;17.13;;
11439;SDS011;5776;51.814;4.510;2022-12-18T04:45:20;39.60;;;19.27;;
11439;SDS011;5776;51.814;4.510;2022-12-18T04:47:45;35.03;;;18.37;;
11439;SDS011;5776;51.814;4.510;2022-12-18T04:50:11;41.37;;;19.27;;
11439;SDS011;5776;51.814;4.510;2022-12-18T04:52:37;35.83;;;18.23;;
11439;SDS011;5776;51.814;4.510;2022-12-18T04:55:03;37.87;;;19.53;;
11439;SDS011;5776;51.814;4.510;2022-12-18T04:57:29;32.90;;;16.80;;
11439;SDS011;5776;51.814;4.510;2022-12-18T04:59:55;33.50;;;17.17;;
11439;SDS011;5776;51.814;4.510;2022-12-18T05:02:21;35.10;;;17.40;;
11439;SDS011;5776;51.814;4.510;2022-12-18T05:04:46;34.90;;;17.97;;
11439;SDS011;5776;51.814;4.510;2022-12-18T05:07:12;34.53;;;18.60;;
11439;SDS011;5776;51.814;4.510;2022-12-18T05:09:38;34.40;;;17.10;;
11439;SDS011;5776;51.814;4.510;2022-12-18T05:12:04;35.70;;;17.53;;
11439;SDS011;5776;51.814;4.510;2022-12-18T05:14:30;33.37;;;17.53;;
11439;SDS011;5776;51.814;4.510;2022-12-18T05:16:56;32.50;;;16.43;;
11439;SDS011;5776;51.814;4.510;2022-12-18T05:19:22;32.20;;;16.43;;
11439;SDS011;5776;51.814;4.510;2022-12-18T05:21:47;37.73;;;18.10;;
11439;SDS011;5776;51.814;4.510;2022-12-18T05:24:13;35.30;;;17.10;;
11439;SDS011;5776;51.814;4.510;2022-12-18T05:26:39;33.07;;;16.27;;
11439;SDS011;5776;51.814;4.510;2022-12-18T05:29:05;30.77;;;15.57;;
11439;SDS011;5776;51.814;4.510;2022-12-18T05:31:31;34.57;;;15.80;;
11439;SDS011;5776;51.814;4.510;2022-12-18T05:33:57;28.07;;;15.33;;
11439;SDS011;5776;51.814;4.510;2022-12-18T05:36:23;36.03;;;17.03;;
11439;SDS011;5776;51.814;4.510;2022-12-18T05:38:49;31.23;;;17.03;;
11439;SDS011;5776;51.814;4.510;2022-12-18T05:41:15;35.83;;;15.70;;
11439;SDS011;5776;51.814;4.510;2022-12-18T05:43:40;30.20;;;16.50;;
11439;SDS011;5776;51.814;4.510;2022-12-18T05:46:08;29.73;;;15.67;;
11439;SDS011;5776;51.814;4.510;2022-12-18T05:48:38;29.93;;;15.77;;
11439;SDS011;5776;51.814;4.510;2022-12-18T05:51:05;34.70;;;18.20;;
11439;SDS011;5776;51.814;4.510;2022-12-18T05:53:33;29.87;;;15.97;;
11439;SDS011;5776;51.814;4.510;2022-12-18T05:56:00;29.17;;;15.10;;
11439;SDS011;5776;51.814;4.510;2022-12-18T05:58:27;30.87;;;16.27;;
11439;SDS011;5776;51.814;4.510;2022-12-18T06:00:53;33.30;;;15.63;;
11439;SDS011;5776;51.814;4.510;2022-12-18T06:03:19;30.33;;;17.23;;
11439;SDS011;5776;51.814;4.510;2022-12-18T06:05:45;32.30;;;16.20;;
11439;SDS011;5776;51.814;4.510;2022-12-18T06:08:11;32.63;;;16.83;;
11439;SDS011;5776;51.814;4.510;2022-12-18T06:10:38;30.83;;;15.30;;
11439;SDS011;5776;51.814;4.510;2022-12-18T06:13:05;31.30;;;16.23;;
11439;SDS011;5776;51.814;4.510;2022-12-18T06:15:32;32.23;;;16.03;;
11439;SDS011;5776;51.814;4.510;2022-12-18T06:17:57;31.20;;;15.73;;
11439;SDS011;5776;51.814;4.510;2022-12-18T06:20:23;27.87;;;14.70;;
11439;SDS011;5776;51.814;4.510;2022-12-18T06:22:49;28.50;;;15.83;;
11439;SDS011;5776;51.814;4.510;2022-12-18T06:25:15;29.80;;;16.33;;
11439;SDS011;5776;51.814;4.510;2022-12-18T06:27:41;28.40;;;15.87;;
11439;SDS011;5776;51.814;4.510;2022-12-18T06:30:07;32.83;;;15.57;;
11439;SDS011;5776;51.814;4.510;2022-12-18T06:32:33;27.33;;;14.53;;
11439;SDS011;5776;51.814;4.510;2022-12-18T06:34:59;27.73;;;14.90;;
11439;SDS011;5776;51.814;4.510;2022-12-18T06:37:25;26.47;;;15.47;;
11439;SDS011;5776;51.814;4.510;2022-12-18T06:39:51;25.17;;;13.07;;
11439;SDS011;5776;51.814;4.510;2022-12-18T06:42:18;24.23;;;13.60;;
11439;SDS011;5776;51.814;4.510;2022-12-18T06:44:47;25.37;;;13.00;;
11439;SDS011;5776;51.814;4.510;2022-12-18T06:47:14;24.37;;;13.90;;
11439;SDS011;5776;51.814;4.510;2022-12-18T06:49:40;25.63;;;12.97;;
11439;SDS011;5776;51.814;4.510;2022-12-18T06:52:06;26.13;;;12.83;;
11439;SDS011;5776;51.814;4.510;2022-12-18T06:54:33;19.07;;;11.50;;
11439;SDS011;5776;51.814;4.510;2022-12-18T06:56:59;23.43;;;12.40;;
11439;SDS011;5776;51.814;4.510;2022-12-18T06:59:25;21.97;;;11.57;;
11439;SDS011;5776;51.814;4.510;2022-12-18T07:01:51;20.70;;;11.30;;
11439;SDS011;5776;51.814;4.510;2022-12-18T07:04:17;23.40;;;12.27;;
11439;SDS011;5776;51.814;4.510;2022-12-18T07:06:44;19.27;;;10.73;;
11439;SDS011;5776;51.814;4.510;2022-12-18T07:09:10;25.33;;;11.53;;
11439;SDS011;5776;51.814;4.510;2022-12-18T07:11:36;18.37;;;10.80;;
11439;SDS011;5776;51.814;4.510;2022-12-18T07:14:03;19.80;;;11.20;;
11439;SDS011;5776;51.814;4.510;2022-12-18T07:16:29;19.13;;;10.93;;
11439;SDS011;5776;51.814;4.510;2022-12-18T07:18:55;16.77;;;9.17;;
11439;SDS011;5776;51.814;4.510;2022-12-18T07:21:23;17.13;;;8.93;;
11439;SDS011;5776;51.814;4.510;2022-12-18T07:23:51;16.77;;;9.07;;
11439;SDS011;5776;51.814;4.510;2022-12-18T07:26:18;17.93;;;9.40;;
11439;SDS011;5776;51.814;4.510;2022-12-18T07:28:46;17.23;;;9.70;;
11439;SDS011;5776;51.814;4.510;2022-12-18T07:31:14;17.37;;;10.20;;
11439;SDS011;5776;51.814;4.510;2022-12-18T07:33:45;18.37;;;10.30;;
11439;SDS011;5776;51.814;4.510;2022-12-18T07:36:11;16.10;;;9.00;;
11439;SDS011;5776;51.814;4.510;2022-12-18T07:38:37;15.30;;;9.00;;
11439;SDS011;5776;51.814;4.510;2022-12-18T07:41:07;16.40;;;9.53;;
11439;SDS011;5776;51.814;4.510;2022-12-18T07:43:35;16.80;;;9.67;;
11439;SDS011;5776;51.814;4.510;2022-12-18T07:46:01;15.57;;;9.10;;
11439;SDS011;5776;51.814;4.510;2022-12-18T07:48:28;11.77;;;6.70;;
11439;SDS011;5776;51.814;4.510;2022-12-18T07:50:58;13.80;;;7.43;;
11439;SDS011;5776;51.814;4.510;2022-12-18T07:53:25;16.27;;;9.13;;
11439;SDS011;5776;51.814;4.510;2022-12-18T07:55:58;15.27;;;7.73;;
11439;SDS011;5776;51.814;4.510;2022-12-18T07:58:26;17.43;;;9.50;;
11439;SDS011;5776;51.814;4.510;2022-12-18T08:00:52;15.63;;;9.07;;
11439;SDS011;5776;51.814;4.510;2022-12-18T08:03:19;15.13;;;8.20;;
11439;SDS011;5776;51.814;4.510;2022-12-18T08:05:44;14.00;;;8.03;;
11439;SDS011;5776;51.814;4.510;2022-12-18T08:08:10;16.60;;;9.60;;
11439;SDS011;5776;51.814;4.510;2022-12-18T08:10:37;15.23;;;8.97;;
11439;SDS011;5776;51.814;4.510;2022-12-18T08:13:03;16.00;;;8.20;;
11439;SDS011;5776;51.814;4.510;2022-12-18T08:15:29;13.63;;;7.93;;
11439;SDS011;5776;51.814;4.510;2022-12-18T08:17:56;16.00;;;8.57;;
11439;SDS011;5776;51.814;4.510;2022-12-18T08:20:22;13.53;;;7.90;;
11439;SDS011;5776;51.814;4.510;2022-12-18T08:22:47;18.10;;;8.93;;
11439;SDS011;5776;51.814;4.510;2022-12-18T08:25:13;14.80;;;8.57;;
11439;SDS011;5776;51.814;4.510;2022-12-18T08:27:39;16.20;;;9.60;;
11439;SDS011;5776;51.814;4.510;2022-12-18T08:30:05;16.53;;;9.70;;
11439;SDS011;5776;51.814;4.510;2022-12-18T08:32:31;13.77;;;8.67;;
11439;SDS011;5776;51.814;4.510;2022-12-18T08:34:58;14.70;;;9.40;;
11439;SDS011;5776;51.814;4.510;2022-12-18T08:37:24;12.37;;;7.17;;
11439;SDS011;5776;51.814;4.510;2022-12-18T08:39:50;16.93;;;9.07;;
11439;SDS011;5776;51.814;4.510;2022-12-18T08:42:16;18.07;;;9.47;;
11439;SDS011;5776;51.814;4.510;2022-12-18T08:45:01;13.23;;;7.77;;
11439;SDS011;5776;51.814;4.510;2022-12-18T08:47:27;18.10;;;10.27;;
11439;SDS011;5776;51.814;4.510;2022-12-18T08:49:53;18.17;;;10.50;;
11439;SDS011;5776;51.814;4.510;2022-12-18T08:52:19;15.97;;;8.97;;
11439;SDS011;5776;51.814;4.510;2022-12-18T08:54:45;16.80;;;10.10;;
11439;SDS011;5776;51.814;4.510;2022-12-18T08:57:11;18.60;;;9.60;;
11439;SDS011;5776;51.814;4.510;2022-12-18T08:59:37;16.97;;;10.90;;
11439;SDS011;5776;51.814;4.510;2022-12-18T09:02:03;17.80;;;11.30;;
11439;SDS011;5776;51.814;4.510;2022-12-18T09:04:29;16.43;;;10.77;;
11439;SDS011;5776;51.814;4.510;2022-12-18T09:06:55;19.90;;;9.80;;
11439;SDS011;5776;51.814;4.510;2022-12-18T09:09:20;17.47;;;9.47;;
11439;SDS011;5776;51.814;4.510;2022-12-18T09:11:46;14.50;;;8.30;;
11439;SDS011;5776;51.814;4.510;2022-12-18T09:14:12;14.53;;;8.70;;
11439;SDS011;5776;51.814;4.510;2022-12-18T09:16:37;16.00;;;9.63;;
11439;SDS011;5776;51.814;4.510;2022-12-18T09:19:04;14.93;;;8.90;;
11439;SDS011;5776;51.814;4.510;2022-12-18T09:21:32;16.43;;;8.60;;
11439;SDS011;5776;51.814;4.510;2022-12-18T09:23:59;16.77;;;9.83;;
11439;SDS011;5776;51.814;4.510;2022-12-18T09:26:26;14.77;;;9.03;;
11439;SDS011;5776;51.814;4.510;2022-12-18T09:28:52;16.57;;;9.27;;
11439;SDS011;5776;51.814;4.510;2022-12-18T09:31:19;13.83;;;8.90;;
11439;SDS011;5776;51.814;4.510;2022-12-18T09:33:47;10.87;;;6.97;;
11439;SDS011;5776;51.814;4.510;2022-12-18T09:36:14;15.53;;;8.57;;
11439;SDS011;5776;51.814;4.510;2022-12-18T09:38:42;16.20;;;9.07;;
11439;SDS011;5776;51.814;4.510;2022-12-18T09:41:28;12.40;;;7.87;;
11439;SDS011;5776;51.814;4.510;2022-12-18T09:49:34;16.70;;;9.80;;
11439;SDS011;5776;51.814;4.510;2022-12-18T09:52:29;15.30;;;8.77;;
11439;SDS011;5776;51.814;4.510;2022-12-18T09:57:54;17.93;;;10.30;;
11439;SDS011;5776;51.814;4.510;2022-12-18T10:00:24;16.63;;;10.40;;
11439;SDS011;5776;51.814;4.510;2022-12-18T10:02:52;16.47;;;10.30;;
11439;SDS011;5776;51.814;4.510;2022-12-18T10:10:57;17.87;;;9.33;;
11439;SDS011;5776;51.814;4.510;2022-12-18T10:13:48;15.50;;;9.57;;
11439;SDS011;5776;51.814;4.510;2022-12-18T10:16:29;16.07;;;8.27;;
11439;SDS011;5776;51.814;4.510;2022-12-18T10:19:11;12.13;;;7.53;;
11439;SDS011;5776;51.814;4.510;2022-12-18T10:27:26;10.87;;;6.33;;
11439;SDS011;5776;51.814;4.510;2022-12-18T10:29:53;11.43;;;7.37;;
11439;SDS011;5776;51.814;4.510;2022-12-18T10:32:24;14.07;;;8.03;;
11439;SDS011;5776;51.814;4.510;2022-12-18T10:34:52;16.13;;;8.87;;
11439;SDS011;5776;51.814;4.510;2022-12-18T10:37:21;11.97;;;7.30;;
11439;SDS011;5776;51.814;4.510;2022-12-18T10:40:23;11.00;;;7.20;;
11439;SDS011;5776;51.814;4.510;2022-12-18T10:42:41;13.27;;;7.53;;
11439;SDS011;5776;51.814;4.510;2022-12-18T10:45:13;17.17;;;8.60;;
11439;SDS011;5776;51.814;4.510;2022-12-18T10:47:44;11.90;;;7.93;;
11439;SDS011;5776;51.814;4.510;2022-12-18T10:52:57;13.43;;;8.37;;
11439;SDS011;5776;51.814;4.510;2022-12-18T10:55:32;17.30;;;9.87;;
11439;SDS011;5776;51.814;4.510;2022-12-18T10:58:13;12.20;;;7.63;;
11439;SDS011;5776;51.814;4.510;2022-12-18T11:03:45;14.43;;;8.37;;
11439;SDS011;5776;51.814;4.510;2022-12-18T11:06:24;14.13;;;8.63;;
11439;SDS011;5776;51.814;4.510;2022-12-18T11:09:04;13.77;;;7.93;;
11439;SDS011;5776;51.814;4.510;2022-12-18T11:11:50;13.97;;;7.63;;
11439;SDS011;5776;51.814;4.510;2022-12-18T11:14:24;16.30;;;9.40;;
11439;SDS011;5776;51.814;4.510;2022-12-18T11:16:52;14.83;;;9.03;;
11439;SDS011;5776;51.814;4.510;2022-12-18T11:22:00;18.10;;;10.63;;
11439;SDS011;5776;51.814;4.510;2022-12-18T11:24:30;18.63;;;10.13;;
11439;SDS011;5776;51.814;4.510;2022-12-18T11:27:00;10.67;;;7.03;;
11439;SDS011;5776;51.814;4.510;2022-12-18T11:34:58;11.97;;;7.83;;
11439;SDS011;5776;51.814;4.510;2022-12-18T11:37:29;13.37;;;8.17;;
11439;SDS011;5776;51.814;4.510;2022-12-18T11:39:57;12.57;;;7.43;;
11439;SDS011;5776;51.814;4.510;2022-12-18T11:43:28;13.83;;;8.27;;
11439;SDS011;5776;51.814;4.510;2022-12-18T11:45:28;13.23;;;7.43;;
11439;SDS011;5776;51.814;4.510;2022-12-18T11:47:58;11.93;;;6.97;;
11439;SDS011;5776;51.814;4.510;2022-12-18T11:50:44;13.57;;;8.50;;
11439;SDS011;5776;51.814;4.510;2022-12-18T11:53:15;10.23;;;6.37;;
11439;SDS011;5776;51.814;4.510;2022-12-18T12:06:46;13.83;;;7.90;;
11439;SDS011;5776;51.814;4.510;2022-12-18T12:09:38;15.60;;;9.23;;
11439;SDS011;5776;51.814;4.510;2022-12-18T12:12:44;13.17;;;7.67;;
11439;SDS011;5776;51.814;4.510;2022-12-18T12:23:29;14.87;;;8.67;;
11439;SDS011;5776;51.814;4.510;2022-12-18T12:26:10;11.10;;;7.07;;
11439;SDS011;5776;51.814;4.510;2022-12-18T12:34:20;12.00;;;7.87;;
11439;SDS011;5776;51.814;4.510;2022-12-18T12:39:33;16.97;;;9.57;;
11439;SDS011;5776;51.814;4.510;2022-12-18T12:42:03;14.87;;;8.20;;
11439;SDS011;5776;51.814;4.510;2022-12-18T12:44:55;14.30;;;7.70;;
11439;SDS011;5776;51.814;4.510;2022-12-18T12:47:31;14.47;;;9.37;;
11439;SDS011;5776;51.814;4.510;2022-12-18T12:50:02;11.60;;;7.23;;
11439;SDS011;5776;51.814;4.510;2022-12-18T12:52:35;11.13;;;7.63;;
11439;SDS011;5776;51.814;4.510;2022-12-18T12:55:12;9.23;;;6.17;;
11439;SDS011;5776;51.814;4.510;2022-12-18T12:57:43;17.23;;;9.60;;
11439;SDS011;5776;51.814;4.510;2022-12-18T13:00:16;11.27;;;6.43;;
11439;SDS011;5776;51.814;4.510;2022-12-18T13:25:50;11.17;;;7.07;;
11439;SDS011;5776;51.814;4.510;2022-12-18T13:30:53;15.63;;;9.20;;
11439;SDS011;5776;51.814;4.510;2022-12-18T13:35:55;8.93;;;6.27;;
11439;SDS011;5776;51.814;4.510;2022-12-18T13:47:03;14.77;;;8.37;;
11439;SDS011;5776;51.814;4.510;2022-12-18T13:49:40;9.30;;;5.83;;
11439;SDS011;5776;51.814;4.510;2022-12-18T13:52:22;13.40;;;7.07;;
11439;SDS011;5776;51.814;4.510;2022-12-18T13:54:54;14.10;;;9.17;;
11439;SDS011;5776;51.814;4.510;2022-12-18T13:57:33;14.93;;;7.80;;
11439;SDS011;5776;51.814;4.510;2022-12-18T14:00:45;11.80;;;7.40;;
11439;SDS011;5776;51.814;4.510;2022-12-18T14:02:49;13.90;;;8.20;;
11439;SDS011;5776;51.814;4.510;2022-12-18T14:05:23;12.97;;;7.60;;
11439;SDS011;5776;51.814;4.510;2022-12-18T14:08:02;15.87;;;8.37;;
11439;SDS011;5776;51.814;4.510;2022-12-18T14:10:30;16.13;;;8.90;;
11439;SDS011;5776;51.814;4.510;2022-12-18T14:12:57;12.33;;;6.80;;
11439;SDS011;5776;51.814;4.510;2022-12-18T14:15:33;18.23;;;9.40;;
11439;SDS011;5776;51.814;4.510;2022-12-18T14:18:00;10.53;;;6.30;;
11439;SDS011;5776;51.814;4.510;2022-12-18T14:20:29;15.07;;;8.10;;
11439;SDS011;5776;51.814;4.510;2022-12-18T14:22:57;10.80;;;6.53;;
11439;SDS011;5776;51.814;4.510;2022-12-18T14:25:24;10.37;;;5.40;;
11439;SDS011;5776;51.814;4.510;2022-12-18T14:30:42;15.97;;;8.50;;
11439;SDS011;5776;51.814;4.510;2022-12-18T14:33:13;8.67;;;5.23;;
11439;SDS011;5776;51.814;4.510;2022-12-18T14:36:00;14.63;;;7.33;;
11439;SDS011;5776;51.814;4.510;2022-12-18T14:38:38;8.63;;;5.03;;
11439;SDS011;5776;51.814;4.510;2022-12-18T14:41:06;12.80;;;6.73;;
11439;SDS011;5776;51.814;4.510;2022-12-18T14:43:33;16.73;;;8.80;;
11439;SDS011;5776;51.814;4.510;2022-12-18T14:46:01;18.83;;;9.13;;
11439;SDS011;5776;51.814;4.510;2022-12-18T14:48:36;12.73;;;6.87;;
11439;SDS011;5776;51.814;4.510;2022-12-18T14:56:45;16.30;;;9.00;;
11439;SDS011;5776;51.814;4.510;2022-12-18T14:59:13;11.97;;;7.27;;
11439;SDS011;5776;51.814;4.510;2022-12-18T15:04:24;13.53;;;8.03;;
11439;SDS011;5776;51.814;4.510;2022-12-18T15:07:01;18.57;;;10.17;;
11439;SDS011;5776;51.814;4.510;2022-12-18T15:09:29;15.63;;;9.97;;
11439;SDS011;5776;51.814;4.510;2022-12-18T15:11:56;14.47;;;8.73;;
11439;SDS011;5776;51.814;4.510;2022-12-18T15:14:31;15.97;;;9.97;;
11439;SDS011;5776;51.814;4.510;2022-12-18T15:17:22;12.87;;;8.27;;
11439;SDS011;5776;51.814;4.510;2022-12-18T15:19:50;16.07;;;8.83;;
11439;SDS011;5776;51.814;4.510;2022-12-18T15:24:50;12.83;;;7.53;;
11439;SDS011;5776;51.814;4.510;2022-12-18T15:27:25;16.47;;;9.83;;
11439;SDS011;5776;51.814;4.510;2022-12-18T15:30:00;13.13;;;7.83;;
11439;SDS011;5776;51.814;4.510;2022-12-18T15:32:46;17.77;;;10.53;;
11439;SDS011;5776;51.814;4.510;2022-12-18T15:35:17;11.33;;;7.20;;
11439;SDS011;5776;51.814;4.510;2022-12-18T15:37:43;10.07;;;6.00;;
11439;SDS011;5776;51.814;4.510;2022-12-18T15:40:14;16.07;;;8.67;;
11439;SDS011;5776;51.814;4.510;2022-12-18T15:42:41;13.47;;;8.70;;
11439;SDS011;5776;51.814;4.510;2022-12-18T15:45:26;12.10;;;7.73;;
11439;SDS011;5776;51.814;4.510;2022-12-18T15:47:52;16.47;;;9.23;;
11439;SDS011;5776;51.814;4.510;2022-12-18T15:50:18;12.53;;;8.03;;
11439;SDS011;5776;51.814;4.510;2022-12-18T15:52:45;18.47;;;9.13;;
11439;SDS011;5776;51.814;4.510;2022-12-18T15:55:13;16.10;;;10.07;;
11439;SDS011;5776;51.814;4.510;2022-12-18T15:57:59;15.87;;;9.30;;
11439;SDS011;5776;51.814;4.510;2022-12-18T16:00:25;17.03;;;9.33;;
11439;SDS011;5776;51.814;4.510;2022-12-18T16:02:51;20.17;;;11.47;;
11439;SDS011;5776;51.814;4.510;2022-12-18T16:05:18;14.03;;;8.03;;
11439;SDS011;5776;51.814;4.510;2022-12-18T16:07:45;12.97;;;8.20;;
11439;SDS011;5776;51.814;4.510;2022-12-18T16:10:12;10.80;;;6.80;;
11439;SDS011;5776;51.814;4.510;2022-12-18T16:12:39;16.53;;;10.00;;
11439;SDS011;5776;51.814;4.510;2022-12-18T16:15:05;12.77;;;7.47;;
11439;SDS011;5776;51.814;4.510;2022-12-18T16:17:32;13.47;;;8.03;;
11439;SDS011;5776;51.814;4.510;2022-12-18T16:19:58;15.87;;;9.43;;
11439;SDS011;5776;51.814;4.510;2022-12-18T16:22:25;9.70;;;6.10;;
11439;SDS011;5776;51.814;4.510;2022-12-18T16:24:52;14.87;;;8.57;;
11439;SDS011;5776;51.814;4.510;2022-12-18T16:27:19;18.70;;;10.00;;
11439;SDS011;5776;51.814;4.510;2022-12-18T16:29:45;18.03;;;10.13;;
11439;SDS011;5776;51.814;4.510;2022-12-18T16:32:13;16.63;;;10.43;;
11439;SDS011;5776;51.814;4.510;2022-12-18T16:34:41;13.87;;;8.57;;
11439;SDS011;5776;51.814;4.510;2022-12-18T16:37:09;14.87;;;8.63;;
11439;SDS011;5776;51.814;4.510;2022-12-18T16:39:37;11.97;;;6.97;;
11439;SDS011;5776;51.814;4.510;2022-12-18T16:42:05;20.13;;;10.40;;
11439;SDS011;5776;51.814;4.510;2022-12-18T16:44:36;16.83;;;11.23;;
11439;SDS011;5776;51.814;4.510;2022-12-18T16:47:03;18.42;;;10.30;;
11439;SDS011;5776;51.814;4.510;2022-12-18T16:49:30;18.60;;;11.23;;
11439;SDS011;5776;51.814;4.510;2022-12-18T16:51:57;16.30;;;10.00;;
11439;SDS011;5776;51.814;4.510;2022-12-18T16:54:26;15.97;;;10.20;;
11439;SDS011;5776;51.814;4.510;2022-12-18T16:56:55;18.67;;;9.97;;
11439;SDS011;5776;51.814;4.510;2022-12-18T16:59:22;14.60;;;9.60;;
11439;SDS011;5776;51.814;4.510;2022-12-18T17:01:48;20.07;;;11.43;;
11439;SDS011;5776;51.814;4.510;2022-12-18T17:04:14;15.03;;;9.07;;
11439;SDS011;5776;51.814;4.510;2022-12-18T17:06:42;16.37;;;9.93;;
11439;SDS011;5776;51.814;4.510;2022-12-18T17:09:14;15.53;;;10.00;;